sensor_id;sensor_type;location;lat;lon;timestamp;P1;durP1;ratioP1;P2;durP2;ratioP2
15126;SDS011;7664;52.008;4.748;2023-04-24T00:01:40;1.98;;;1.23;;
15126;SDS011;7664;52.008;4.748;2023-04-24T00:04:11;1.70;;;1.23;;
15126;SDS011;7664;52.008;4.748;2023-04-24T00:06:45;1.40;;;0.95;;
15126;SDS011;7664;52.008;4.748;2023-04-24T00:09:15;2.75;;;1.05;;
15126;SDS011;7664;52.008;4.748;2023-04-24T00:11:44;1.65;;;1.17;;
15126;SDS011;7664;52.008;4.748;2023-04-24T00:14:12;2.28;;;1.13;;
15126;SDS011;7664;52.008;4.748;2023-04-24T00:16:40;2.17;;;1.20;;
15126;SDS011;7664;52.008;4.748;2023-04-24T00:19:08;1.83;;;0.93;;
15126;SDS011;7664;52.008;4.748;2023-04-24T00:21:38;1.60;;;1.10;;
15126;SDS011;7664;52.008;4.748;2023-04-24T00:24:08;2.20;;;1.30;;
15126;SDS011;7664;52.008;4.748;2023-04-24T00:26:39;1.85;;;1.13;;
15126;SDS011;7664;52.008;4.748;2023-04-24T00:29:07;1.48;;;1.20;;
15126;SDS011;7664;52.008;4.748;2023-04-24T00:31:39;2.60;;;1.10;;
15126;SDS011;7664;52.008;4.748;2023-04-24T00:34:10;1.38;;;0.93;;
15126;SDS011;7664;52.008;4.748;2023-04-24T00:36:38;1.90;;;1.80;;
15126;SDS011;7664;52.008;4.748;2023-04-24T00:39:08;1.38;;;1.20;;
15126;SDS011;7664;52.008;4.748;2023-04-24T00:41:37;1.50;;;1.40;;
15126;SDS011;7664;52.008;4.748;2023-04-24T00:44:05;1.63;;;1.35;;
15126;SDS011;7664;52.008;4.748;2023-04-24T00:46:38;3.50;;;1.30;;
15126;SDS011;7664;52.008;4.748;2023-04-24T00:49:07;1.98;;;1.10;;
15126;SDS011;7664;52.008;4.748;2023-04-24T00:51:38;1.77;;;1.02;;
15126;SDS011;7664;52.008;4.748;2023-04-24T00:54:13;1.38;;;1.13;;
15126;SDS011;7664;52.008;4.748;2023-04-24T00:56:42;3.03;;;1.45;;
15126;SDS011;7664;52.008;4.748;2023-04-24T00:59:13;1.30;;;1.15;;
15126;SDS011;7664;52.008;4.748;2023-04-24T01:01:41;2.05;;;1.02;;
15126;SDS011;7664;52.008;4.748;2023-04-24T01:04:12;1.08;;;0.90;;
15126;SDS011;7664;52.008;4.748;2023-04-24T01:06:41;3.47;;;1.20;;
15126;SDS011;7664;52.008;4.748;2023-04-24T01:09:11;0.80;;;0.80;;
15126;SDS011;7664;52.008;4.748;2023-04-24T01:11:42;2.15;;;1.27;;
15126;SDS011;7664;52.008;4.748;2023-04-24T01:14:11;1.42;;;0.90;;
15126;SDS011;7664;52.008;4.748;2023-04-24T01:16:40;1.10;;;1.00;;
15126;SDS011;7664;52.008;4.748;2023-04-24T01:19:08;1.08;;;0.80;;
15126;SDS011;7664;52.008;4.748;2023-04-24T01:21:38;1.85;;;1.48;;
15126;SDS011;7664;52.008;4.748;2023-04-24T01:24:10;1.58;;;1.20;;
15126;SDS011;7664;52.008;4.748;2023-04-24T01:26:39;1.85;;;1.30;;
15126;SDS011;7664;52.008;4.748;2023-04-24T01:29:07;2.45;;;1.30;;
15126;SDS011;7664;52.008;4.748;2023-04-24T01:31:36;1.55;;;1.40;;
15126;SDS011;7664;52.008;4.748;2023-04-24T01:34:05;1.25;;;1.15;;
15126;SDS011;7664;52.008;4.748;2023-04-24T01:36:34;2.30;;;1.58;;
15126;SDS011;7664;52.008;4.748;2023-04-24T01:39:03;2.33;;;1.50;;
15126;SDS011;7664;52.008;4.748;2023-04-24T01:41:33;2.25;;;1.50;;
15126;SDS011;7664;52.008;4.748;2023-04-24T01:44:01;1.50;;;1.40;;
15126;SDS011;7664;52.008;4.748;2023-04-24T01:46:30;2.55;;;2.00;;
15126;SDS011;7664;52.008;4.748;2023-04-24T01:49:00;3.95;;;1.65;;
15126;SDS011;7664;52.008;4.748;2023-04-24T01:51:29;2.58;;;1.83;;
15126;SDS011;7664;52.008;4.748;2023-04-24T01:53:58;8.25;;;2.15;;
15126;SDS011;7664;52.008;4.748;2023-04-24T01:56:28;3.22;;;2.15;;
15126;SDS011;7664;52.008;4.748;2023-04-24T01:58:58;3.03;;;2.00;;
15126;SDS011;7664;52.008;4.748;2023-04-24T02:01:29;2.50;;;2.17;;
15126;SDS011;7664;52.008;4.748;2023-04-24T02:04:01;3.10;;;2.15;;
15126;SDS011;7664;52.008;4.748;2023-04-24T02:06:32;3.25;;;2.40;;
15126;SDS011;7664;52.008;4.748;2023-04-24T02:09:01;3.08;;;2.00;;
15126;SDS011;7664;52.008;4.748;2023-04-24T02:11:30;3.28;;;2.10;;
15126;SDS011;7664;52.008;4.748;2023-04-24T02:14:04;2.25;;;1.50;;
15126;SDS011;7664;52.008;4.748;2023-04-24T02:16:35;2.20;;;1.98;;
15126;SDS011;7664;52.008;4.748;2023-04-24T02:19:03;2.75;;;1.70;;
15126;SDS011;7664;52.008;4.748;2023-04-24T02:21:32;1.92;;;1.48;;
15126;SDS011;7664;52.008;4.748;2023-04-24T02:24:02;2.90;;;1.77;;
15126;SDS011;7664;52.008;4.748;2023-04-24T02:26:31;2.40;;;1.80;;
15126;SDS011;7664;52.008;4.748;2023-04-24T02:28:59;2.63;;;1.63;;
15126;SDS011;7664;52.008;4.748;2023-04-24T02:31:29;2.22;;;1.80;;
15126;SDS011;7664;52.008;4.748;2023-04-24T02:34:00;1.85;;;1.30;;
15126;SDS011;7664;52.008;4.748;2023-04-24T02:36:33;1.88;;;1.20;;
15126;SDS011;7664;52.008;4.748;2023-04-24T02:39:01;1.73;;;1.55;;
15126;SDS011;7664;52.008;4.748;2023-04-24T02:41:32;1.33;;;1.23;;
15126;SDS011;7664;52.008;4.748;2023-04-24T02:44:00;2.03;;;1.20;;
15126;SDS011;7664;52.008;4.748;2023-04-24T02:46:30;1.00;;;0.90;;
15126;SDS011;7664;52.008;4.748;2023-04-24T02:48:59;1.02;;;0.93;;
15126;SDS011;7664;52.008;4.748;2023-04-24T02:51:29;1.70;;;1.15;;
15126;SDS011;7664;52.008;4.748;2023-04-24T02:53:58;1.55;;;1.08;;
15126;SDS011;7664;52.008;4.748;2023-04-24T02:56:36;1.27;;;1.00;;
15126;SDS011;7664;52.008;4.748;2023-04-24T02:59:08;1.20;;;1.10;;
15126;SDS011;7664;52.008;4.748;2023-04-24T03:01:42;1.77;;;0.90;;
15126;SDS011;7664;52.008;4.748;2023-04-24T03:04:13;2.33;;;1.30;;
15126;SDS011;7664;52.008;4.748;2023-04-24T03:06:42;1.48;;;1.15;;
15126;SDS011;7664;52.008;4.748;2023-04-24T03:09:13;1.13;;;0.80;;
15126;SDS011;7664;52.008;4.748;2023-04-24T03:11:41;2.55;;;1.42;;
15126;SDS011;7664;52.008;4.748;2023-04-24T03:14:15;1.85;;;1.30;;
15126;SDS011;7664;52.008;4.748;2023-04-24T03:16:47;2.60;;;0.93;;
15126;SDS011;7664;52.008;4.748;2023-04-24T03:19:20;2.08;;;1.42;;
15126;SDS011;7664;52.008;4.748;2023-04-24T03:22:01;0.80;;;0.75;;
15126;SDS011;7664;52.008;4.748;2023-04-24T03:24:36;1.25;;;0.70;;
15126;SDS011;7664;52.008;4.748;2023-04-24T03:27:04;0.90;;;0.57;;
15126;SDS011;7664;52.008;4.748;2023-04-24T03:30:01;0.52;;;0.40;;
15126;SDS011;7664;52.008;4.748;2023-04-24T03:32:46;0.50;;;0.30;;
15126;SDS011;7664;52.008;4.748;2023-04-24T03:35:20;1.15;;;0.43;;
15126;SDS011;7664;52.008;4.748;2023-04-24T03:37:52;1.33;;;0.65;;
15126;SDS011;7664;52.008;4.748;2023-04-24T03:40:46;0.73;;;0.45;;
15126;SDS011;7664;52.008;4.748;2023-04-24T03:43:37;1.25;;;0.30;;
15126;SDS011;7664;52.008;4.748;2023-04-24T03:46:06;1.42;;;0.40;;
15126;SDS011;7664;52.008;4.748;2023-04-24T03:48:42;0.38;;;0.20;;
15126;SDS011;7664;52.008;4.748;2023-04-24T03:51:17;0.30;;;0.30;;
15126;SDS011;7664;52.008;4.748;2023-04-24T03:53:52;0.30;;;0.30;;
15126;SDS011;7664;52.008;4.748;2023-04-24T03:56:27;0.30;;;0.20;;
15126;SDS011;7664;52.008;4.748;2023-04-24T03:58:58;0.43;;;0.20;;
15126;SDS011;7664;52.008;4.748;2023-04-24T04:01:27;1.55;;;0.30;;
15126;SDS011;7664;52.008;4.748;2023-04-24T04:04:01;0.43;;;0.30;;
15126;SDS011;7664;52.008;4.748;2023-04-24T04:06:29;0.88;;;0.20;;
15126;SDS011;7664;52.008;4.748;2023-04-24T04:08:59;0.57;;;0.28;;
15126;SDS011;7664;52.008;4.748;2023-04-24T04:11:30;1.02;;;0.20;;
15126;SDS011;7664;52.008;4.748;2023-04-24T04:13:59;0.85;;;0.40;;
15126;SDS011;7664;52.008;4.748;2023-04-24T04:16:31;0.20;;;0.20;;
15126;SDS011;7664;52.008;4.748;2023-04-24T04:19:05;1.85;;;0.32;;
15126;SDS011;7664;52.008;4.748;2023-04-24T04:21:38;0.20;;;0.20;;
15126;SDS011;7664;52.008;4.748;2023-04-24T04:24:22;0.65;;;0.20;;
15126;SDS011;7664;52.008;4.748;2023-04-24T04:26:51;0.20;;;0.20;;
15126;SDS011;7664;52.008;4.748;2023-04-24T04:29:38;0.20;;;0.10;;
15126;SDS011;7664;52.008;4.748;2023-04-24T04:32:09;1.08;;;0.75;;
15126;SDS011;7664;52.008;4.748;2023-04-24T04:34:39;0.93;;;0.30;;
15126;SDS011;7664;52.008;4.748;2023-04-24T04:37:10;1.75;;;0.40;;
15126;SDS011;7664;52.008;4.748;2023-04-24T04:39:46;1.10;;;0.30;;
15126;SDS011;7664;52.008;4.748;2023-04-24T04:42:18;0.47;;;0.20;;
15126;SDS011;7664;52.008;4.748;2023-04-24T04:44:49;1.55;;;0.47;;
15126;SDS011;7664;52.008;4.748;2023-04-24T04:47:24;1.17;;;0.75;;
15126;SDS011;7664;52.008;4.748;2023-04-24T04:50:00;1.50;;;0.50;;
15126;SDS011;7664;52.008;4.748;2023-04-24T04:52:31;0.98;;;0.30;;
15126;SDS011;7664;52.008;4.748;2023-04-24T04:55:18;0.93;;;0.20;;
15126;SDS011;7664;52.008;4.748;2023-04-24T04:58:05;0.25;;;0.25;;
15126;SDS011;7664;52.008;4.748;2023-04-24T05:00:33;0.32;;;0.20;;
15126;SDS011;7664;52.008;4.748;2023-04-24T05:03:12;0.68;;;0.45;;
15126;SDS011;7664;52.008;4.748;2023-04-24T05:05:53;0.80;;;0.80;;
15126;SDS011;7664;52.008;4.748;2023-04-24T05:08:25;2.17;;;0.80;;
15126;SDS011;7664;52.008;4.748;2023-04-24T05:10:55;1.17;;;0.45;;
15126;SDS011;7664;52.008;4.748;2023-04-24T05:13:28;0.63;;;0.63;;
15126;SDS011;7664;52.008;4.748;2023-04-24T05:16:26;3.97;;;1.25;;
15126;SDS011;7664;52.008;4.748;2023-04-24T05:18:55;4.38;;;1.92;;
15126;SDS011;7664;52.008;4.748;2023-04-24T05:21:30;2.83;;;1.58;;
15126;SDS011;7664;52.008;4.748;2023-04-24T05:24:01;3.97;;;1.48;;
15126;SDS011;7664;52.008;4.748;2023-04-24T05:26:56;2.10;;;1.30;;
15126;SDS011;7664;52.008;4.748;2023-04-24T05:29:34;5.25;;;1.67;;
15126;SDS011;7664;52.008;4.748;2023-04-24T05:32:05;2.58;;;1.55;;
15126;SDS011;7664;52.008;4.748;2023-04-24T05:34:33;4.85;;;2.55;;
15126;SDS011;7664;52.008;4.748;2023-04-24T05:37:03;5.68;;;2.40;;
15126;SDS011;7664;52.008;4.748;2023-04-24T05:39:36;7.10;;;3.42;;
15126;SDS011;7664;52.008;4.748;2023-04-24T05:42:07;7.75;;;4.80;;
15126;SDS011;7664;52.008;4.748;2023-04-24T05:44:35;8.40;;;4.82;;
15126;SDS011;7664;52.008;4.748;2023-04-24T05:47:04;12.18;;;5.43;;
15126;SDS011;7664;52.008;4.748;2023-04-24T05:49:32;10.25;;;6.40;;
15126;SDS011;7664;52.008;4.748;2023-04-24T05:52:01;8.93;;;5.82;;
15126;SDS011;7664;52.008;4.748;2023-04-24T05:54:32;13.40;;;6.95;;
15126;SDS011;7664;52.008;4.748;2023-04-24T05:57:09;14.32;;;7.15;;
15126;SDS011;7664;52.008;4.748;2023-04-24T06:00:04;11.60;;;7.40;;
15126;SDS011;7664;52.008;4.748;2023-04-24T06:02:47;11.50;;;5.90;;
15126;SDS011;7664;52.008;4.748;2023-04-24T06:05:21;13.23;;;6.38;;
15126;SDS011;7664;52.008;4.748;2023-04-24T06:07:52;12.68;;;5.88;;
15126;SDS011;7664;52.008;4.748;2023-04-24T06:10:24;13.55;;;5.55;;
15126;SDS011;7664;52.008;4.748;2023-04-24T06:12:54;8.75;;;5.43;;
15126;SDS011;7664;52.008;4.748;2023-04-24T06:15:28;12.98;;;5.85;;
15126;SDS011;7664;52.008;4.748;2023-04-24T06:18:05;11.82;;;5.50;;
15126;SDS011;7664;52.008;4.748;2023-04-24T06:20:38;10.73;;;6.63;;
15126;SDS011;7664;52.008;4.748;2023-04-24T06:23:08;10.52;;;6.22;;
15126;SDS011;7664;52.008;4.748;2023-04-24T06:25:37;14.93;;;6.20;;
15126;SDS011;7664;52.008;4.748;2023-04-24T06:28:10;10.90;;;5.97;;
15126;SDS011;7664;52.008;4.748;2023-04-24T06:30:43;17.33;;;6.20;;
15126;SDS011;7664;52.008;4.748;2023-04-24T06:33:12;9.40;;;4.97;;
15126;SDS011;7664;52.008;4.748;2023-04-24T06:35:49;10.52;;;4.53;;
15126;SDS011;7664;52.008;4.748;2023-04-24T06:38:18;10.98;;;5.00;;
15126;SDS011;7664;52.008;4.748;2023-04-24T06:40:50;13.07;;;4.75;;
15126;SDS011;7664;52.008;4.748;2023-04-24T06:43:21;14.25;;;4.35;;
15126;SDS011;7664;52.008;4.748;2023-04-24T06:45:49;14.30;;;4.82;;
15126;SDS011;7664;52.008;4.748;2023-04-24T06:48:18;10.05;;;3.88;;
15126;SDS011;7664;52.008;4.748;2023-04-24T06:50:48;15.38;;;4.95;;
15126;SDS011;7664;52.008;4.748;2023-04-24T06:53:16;12.75;;;3.75;;
15126;SDS011;7664;52.008;4.748;2023-04-24T06:55:45;8.93;;;2.95;;
15126;SDS011;7664;52.008;4.748;2023-04-24T06:58:15;9.48;;;3.50;;
15126;SDS011;7664;52.008;4.748;2023-04-24T07:00:43;20.58;;;4.40;;
15126;SDS011;7664;52.008;4.748;2023-04-24T07:03:14;11.38;;;2.80;;
15126;SDS011;7664;52.008;4.748;2023-04-24T07:05:49;9.45;;;3.00;;
15126;SDS011;7664;52.008;4.748;2023-04-24T07:08:17;12.23;;;3.47;;
15126;SDS011;7664;52.008;4.748;2023-04-24T07:10:46;11.35;;;3.45;;
15126;SDS011;7664;52.008;4.748;2023-04-24T07:13:16;11.23;;;3.10;;
15126;SDS011;7664;52.008;4.748;2023-04-24T07:15:47;11.68;;;3.13;;
15126;SDS011;7664;52.008;4.748;2023-04-24T07:18:17;11.35;;;3.10;;
15126;SDS011;7664;52.008;4.748;2023-04-24T07:20:45;8.68;;;2.22;;
15126;SDS011;7664;52.008;4.748;2023-04-24T07:23:17;7.57;;;2.75;;
15126;SDS011;7664;52.008;4.748;2023-04-24T07:25:50;5.28;;;1.92;;
15126;SDS011;7664;52.008;4.748;2023-04-24T07:28:20;9.40;;;2.15;;
15126;SDS011;7664;52.008;4.748;2023-04-24T07:30:48;9.32;;;2.58;;
15126;SDS011;7664;52.008;4.748;2023-04-24T07:33:16;16.08;;;2.63;;
15126;SDS011;7664;52.008;4.748;2023-04-24T07:35:47;11.93;;;3.53;;
15126;SDS011;7664;52.008;4.748;2023-04-24T07:38:15;17.48;;;3.33;;
15126;SDS011;7664;52.008;4.748;2023-04-24T07:40:46;10.57;;;3.15;;
15126;SDS011;7664;52.008;4.748;2023-04-24T07:43:20;8.07;;;2.08;;
15126;SDS011;7664;52.008;4.748;2023-04-24T07:45:51;11.35;;;2.20;;
15126;SDS011;7664;52.008;4.748;2023-04-24T07:48:19;13.25;;;2.42;;
15126;SDS011;7664;52.008;4.748;2023-04-24T07:50:48;8.60;;;1.83;;
15126;SDS011;7664;52.008;4.748;2023-04-24T07:53:21;10.05;;;1.83;;
15126;SDS011;7664;52.008;4.748;2023-04-24T07:55:49;5.90;;;1.98;;
15126;SDS011;7664;52.008;4.748;2023-04-24T07:58:22;11.70;;;2.13;;
15126;SDS011;7664;52.008;4.748;2023-04-24T08:00:50;10.88;;;2.15;;
15126;SDS011;7664;52.008;4.748;2023-04-24T08:03:20;11.68;;;2.63;;
15126;SDS011;7664;52.008;4.748;2023-04-24T08:05:50;15.77;;;2.28;;
15126;SDS011;7664;52.008;4.748;2023-04-24T08:08:20;8.57;;;1.95;;
15126;SDS011;7664;52.008;4.748;2023-04-24T08:10:49;13.48;;;2.75;;
15126;SDS011;7664;52.008;4.748;2023-04-24T08:13:23;7.43;;;1.98;;
15126;SDS011;7664;52.008;4.748;2023-04-24T08:15:54;7.90;;;2.05;;
15126;SDS011;7664;52.008;4.748;2023-04-24T08:18:24;7.95;;;1.65;;
15126;SDS011;7664;52.008;4.748;2023-04-24T08:20:53;6.38;;;1.75;;
15126;SDS011;7664;52.008;4.748;2023-04-24T08:23:21;9.75;;;1.88;;
15126;SDS011;7664;52.008;4.748;2023-04-24T08:25:49;11.55;;;2.05;;
15126;SDS011;7664;52.008;4.748;2023-04-24T08:28:18;14.98;;;1.98;;
15126;SDS011;7664;52.008;4.748;2023-04-24T08:30:48;13.43;;;2.40;;
15126;SDS011;7664;52.008;4.748;2023-04-24T08:33:21;6.55;;;1.38;;
15126;SDS011;7664;52.008;4.748;2023-04-24T08:35:52;8.77;;;2.10;;
15126;SDS011;7664;52.008;4.748;2023-04-24T08:38:20;5.40;;;1.48;;
15126;SDS011;7664;52.008;4.748;2023-04-24T08:40:49;5.95;;;1.40;;
15126;SDS011;7664;52.008;4.748;2023-04-24T08:43:20;8.07;;;2.20;;
15126;SDS011;7664;52.008;4.748;2023-04-24T08:45:58;4.70;;;1.98;;
15126;SDS011;7664;52.008;4.748;2023-04-24T08:48:31;7.10;;;1.58;;
15126;SDS011;7664;52.008;4.748;2023-04-24T08:51:00;8.18;;;1.30;;
15126;SDS011;7664;52.008;4.748;2023-04-24T08:53:30;7.40;;;1.95;;
15126;SDS011;7664;52.008;4.748;2023-04-24T08:56:00;4.35;;;1.33;;
15126;SDS011;7664;52.008;4.748;2023-04-24T08:58:29;8.55;;;1.55;;
15126;SDS011;7664;52.008;4.748;2023-04-24T09:01:04;2.72;;;1.48;;
15126;SDS011;7664;52.008;4.748;2023-04-24T09:03:35;5.22;;;1.50;;
15126;SDS011;7664;52.008;4.748;2023-04-24T09:06:04;5.57;;;1.73;;
15126;SDS011;7664;52.008;4.748;2023-04-24T09:08:34;3.25;;;1.27;;
15126;SDS011;7664;52.008;4.748;2023-04-24T09:11:05;9.65;;;1.67;;
15126;SDS011;7664;52.008;4.748;2023-04-24T09:13:38;5.82;;;1.13;;
15126;SDS011;7664;52.008;4.748;2023-04-24T09:16:12;5.10;;;0.88;;
15126;SDS011;7664;52.008;4.748;2023-04-24T09:18:41;4.47;;;1.30;;
15126;SDS011;7664;52.008;4.748;2023-04-24T09:21:09;4.72;;;1.88;;
15126;SDS011;7664;52.008;4.748;2023-04-24T09:23:38;8.15;;;1.45;;
15126;SDS011;7664;52.008;4.748;2023-04-24T09:26:06;4.53;;;0.88;;
15126;SDS011;7664;52.008;4.748;2023-04-24T09:28:37;4.75;;;1.17;;
15126;SDS011;7664;52.008;4.748;2023-04-24T09:31:07;7.03;;;1.77;;
15126;SDS011;7664;52.008;4.748;2023-04-24T09:33:39;4.57;;;0.77;;
15126;SDS011;7664;52.008;4.748;2023-04-24T09:36:12;2.47;;;0.80;;
15126;SDS011;7664;52.008;4.748;2023-04-24T09:38:40;2.47;;;0.90;;
15126;SDS011;7664;52.008;4.748;2023-04-24T09:41:22;2.45;;;0.40;;
15126;SDS011;7664;52.008;4.748;2023-04-24T09:43:55;4.18;;;0.70;;
15126;SDS011;7664;52.008;4.748;2023-04-24T09:46:29;3.00;;;0.57;;
15126;SDS011;7664;52.008;4.748;2023-04-24T09:49:02;3.47;;;0.77;;
15126;SDS011;7664;52.008;4.748;2023-04-24T09:51:36;3.78;;;0.75;;
15126;SDS011;7664;52.008;4.748;2023-04-24T09:54:13;4.43;;;0.80;;
15126;SDS011;7664;52.008;4.748;2023-04-24T09:56:45;1.48;;;0.70;;
15126;SDS011;7664;52.008;4.748;2023-04-24T09:59:14;3.78;;;0.75;;
15126;SDS011;7664;52.008;4.748;2023-04-24T10:01:42;2.70;;;0.40;;
15126;SDS011;7664;52.008;4.748;2023-04-24T10:04:19;1.20;;;0.55;;
15126;SDS011;7664;52.008;4.748;2023-04-24T10:06:51;2.85;;;0.77;;
15126;SDS011;7664;52.008;4.748;2023-04-24T10:09:21;4.18;;;0.63;;
15126;SDS011;7664;52.008;4.748;2023-04-24T10:11:50;4.47;;;0.80;;
15126;SDS011;7664;52.008;4.748;2023-04-24T10:14:21;3.75;;;0.80;;
15126;SDS011;7664;52.008;4.748;2023-04-24T10:16:55;1.00;;;0.38;;
15126;SDS011;7664;52.008;4.748;2023-04-24T10:19:29;2.70;;;0.50;;
15126;SDS011;7664;52.008;4.748;2023-04-24T10:21:58;2.85;;;0.88;;
15126;SDS011;7664;52.008;4.748;2023-04-24T10:24:27;1.15;;;0.60;;
15126;SDS011;7664;52.008;4.748;2023-04-24T10:26:56;0.90;;;0.63;;
15126;SDS011;7664;52.008;4.748;2023-04-24T10:29:25;4.68;;;0.50;;
15126;SDS011;7664;52.008;4.748;2023-04-24T10:31:54;1.38;;;0.57;;
15126;SDS011;7664;52.008;4.748;2023-04-24T10:34:22;2.67;;;0.70;;
15126;SDS011;7664;52.008;4.748;2023-04-24T10:36:52;1.52;;;0.43;;
15126;SDS011;7664;52.008;4.748;2023-04-24T10:39:26;1.88;;;0.40;;
15126;SDS011;7664;52.008;4.748;2023-04-24T10:41:57;2.13;;;0.70;;
15126;SDS011;7664;52.008;4.748;2023-04-24T10:44:25;0.80;;;0.50;;
15126;SDS011;7664;52.008;4.748;2023-04-24T10:46:54;1.67;;;0.47;;
15126;SDS011;7664;52.008;4.748;2023-04-24T10:49:30;2.05;;;0.55;;
15126;SDS011;7664;52.008;4.748;2023-04-24T10:52:01;1.67;;;0.57;;
15126;SDS011;7664;52.008;4.748;2023-04-24T10:54:35;3.63;;;1.02;;
15126;SDS011;7664;52.008;4.748;2023-04-24T11:00:09;4.93;;;0.80;;
15126;SDS011;7664;52.008;4.748;2023-04-24T11:02:40;3.33;;;0.70;;
15126;SDS011;7664;52.008;4.748;2023-04-24T11:05:15;4.88;;;0.75;;
15126;SDS011;7664;52.008;4.748;2023-04-24T11:10:34;5.07;;;0.98;;
15126;SDS011;7664;52.008;4.748;2023-04-24T11:13:06;4.55;;;0.77;;
15126;SDS011;7664;52.008;4.748;2023-04-24T11:15:37;2.75;;;0.80;;
15126;SDS011;7664;52.008;4.748;2023-04-24T11:18:12;3.70;;;0.50;;
15126;SDS011;7664;52.008;4.748;2023-04-24T11:20:42;1.70;;;0.50;;
15126;SDS011;7664;52.008;4.748;2023-04-24T11:23:13;4.43;;;0.80;;
15126;SDS011;7664;52.008;4.748;2023-04-24T11:25:43;3.55;;;1.02;;
15126;SDS011;7664;52.008;4.748;2023-04-24T11:28:14;3.55;;;0.82;;
15126;SDS011;7664;52.008;4.748;2023-04-24T11:30:43;1.30;;;0.50;;
15126;SDS011;7664;52.008;4.748;2023-04-24T11:33:11;1.65;;;0.40;;
15126;SDS011;7664;52.008;4.748;2023-04-24T11:35:48;2.58;;;1.05;;
15126;SDS011;7664;52.008;4.748;2023-04-24T11:38:18;9.45;;;1.10;;
15126;SDS011;7664;52.008;4.748;2023-04-24T11:40:52;3.00;;;0.63;;
15126;SDS011;7664;52.008;4.748;2023-04-24T11:43:26;2.70;;;0.85;;
15126;SDS011;7664;52.008;4.748;2023-04-24T11:45:59;3.53;;;0.68;;
15126;SDS011;7664;52.008;4.748;2023-04-24T11:48:27;2.55;;;0.60;;
15126;SDS011;7664;52.008;4.748;2023-04-24T11:50:56;2.72;;;0.85;;
15126;SDS011;7664;52.008;4.748;2023-04-24T11:53:24;5.90;;;0.77;;
15126;SDS011;7664;52.008;4.748;2023-04-24T11:55:55;7.07;;;1.75;;
15126;SDS011;7664;52.008;4.748;2023-04-24T11:58:26;0.82;;;0.55;;
15126;SDS011;7664;52.008;4.748;2023-04-24T12:00:58;1.40;;;0.65;;
15126;SDS011;7664;52.008;4.748;2023-04-24T12:03:27;2.88;;;0.93;;
15126;SDS011;7664;52.008;4.748;2023-04-24T12:06:04;3.85;;;0.80;;
15126;SDS011;7664;52.008;4.748;2023-04-24T12:08:34;3.90;;;1.00;;
15126;SDS011;7664;52.008;4.748;2023-04-24T12:11:05;3.20;;;0.93;;
15126;SDS011;7664;52.008;4.748;2023-04-24T12:13:35;5.97;;;1.10;;
15126;SDS011;7664;52.008;4.748;2023-04-24T12:16:05;2.53;;;0.75;;
15126;SDS011;7664;52.008;4.748;2023-04-24T12:18:40;4.15;;;1.25;;
15126;SDS011;7664;52.008;4.748;2023-04-24T12:21:16;4.25;;;1.58;;
15126;SDS011;7664;52.008;4.748;2023-04-24T12:23:48;2.75;;;1.00;;
15126;SDS011;7664;52.008;4.748;2023-04-24T12:26:22;4.20;;;1.33;;
15126;SDS011;7664;52.008;4.748;2023-04-24T12:28:52;10.43;;;1.73;;
15126;SDS011;7664;52.008;4.748;2023-04-24T12:31:20;6.47;;;1.40;;
15126;SDS011;7664;52.008;4.748;2023-04-24T12:33:50;4.65;;;1.40;;
15126;SDS011;7664;52.008;4.748;2023-04-24T12:36:21;7.70;;;1.58;;
15126;SDS011;7664;52.008;4.748;2023-04-24T12:38:52;7.63;;;1.40;;
15126;SDS011;7664;52.008;4.748;2023-04-24T12:41:20;4.35;;;1.10;;
15126;SDS011;7664;52.008;4.748;2023-04-24T12:43:53;3.40;;;1.15;;
15126;SDS011;7664;52.008;4.748;2023-04-24T12:46:22;6.15;;;1.75;;
15126;SDS011;7664;52.008;4.748;2023-04-24T12:48:50;7.72;;;2.72;;
15126;SDS011;7664;52.008;4.748;2023-04-24T12:51:19;11.18;;;1.23;;
15126;SDS011;7664;52.008;4.748;2023-04-24T12:53:50;6.28;;;1.75;;
15126;SDS011;7664;52.008;4.748;2023-04-24T12:56:21;7.80;;;1.38;;
15126;SDS011;7664;52.008;4.748;2023-04-24T12:58:50;7.55;;;2.03;;
15126;SDS011;7664;52.008;4.748;2023-04-24T13:01:26;10.15;;;2.08;;
15126;SDS011;7664;52.008;4.748;2023-04-24T13:03:58;5.15;;;1.83;;
15126;SDS011;7664;52.008;4.748;2023-04-24T13:06:29;4.60;;;1.70;;
15126;SDS011;7664;52.008;4.748;2023-04-24T13:08:57;5.68;;;1.70;;
15126;SDS011;7664;52.008;4.748;2023-04-24T13:11:30;7.05;;;1.60;;
15126;SDS011;7664;52.008;4.748;2023-04-24T13:14:01;8.68;;;2.47;;
15126;SDS011;7664;52.008;4.748;2023-04-24T13:16:30;7.40;;;1.42;;
15126;SDS011;7664;52.008;4.748;2023-04-24T13:18:59;7.80;;;2.22;;
15126;SDS011;7664;52.008;4.748;2023-04-24T13:21:32;5.72;;;1.50;;
15126;SDS011;7664;52.008;4.748;2023-04-24T13:24:03;6.72;;;1.90;;
15126;SDS011;7664;52.008;4.748;2023-04-24T13:26:39;6.72;;;1.80;;
15126;SDS011;7664;52.008;4.748;2023-04-24T13:29:07;6.53;;;1.85;;
15126;SDS011;7664;52.008;4.748;2023-04-24T13:31:42;9.20;;;2.17;;
15126;SDS011;7664;52.008;4.748;2023-04-24T13:34:17;7.30;;;1.85;;
15126;SDS011;7664;52.008;4.748;2023-04-24T13:36:46;7.45;;;2.17;;
15126;SDS011;7664;52.008;4.748;2023-04-24T13:39:15;10.40;;;1.98;;
15126;SDS011;7664;52.008;4.748;2023-04-24T13:41:43;3.95;;;1.17;;
15126;SDS011;7664;52.008;4.748;2023-04-24T13:44:13;5.47;;;1.55;;
15126;SDS011;7664;52.008;4.748;2023-04-24T13:46:43;4.68;;;1.30;;
15126;SDS011;7664;52.008;4.748;2023-04-24T13:49:14;5.18;;;1.48;;
15126;SDS011;7664;52.008;4.748;2023-04-24T13:51:45;3.22;;;1.38;;
15126;SDS011;7664;52.008;4.748;2023-04-24T13:54:14;3.30;;;1.25;;
15126;SDS011;7664;52.008;4.748;2023-04-24T13:56:42;4.18;;;1.67;;
15126;SDS011;7664;52.008;4.748;2023-04-24T13:59:11;2.75;;;1.10;;
15126;SDS011;7664;52.008;4.748;2023-04-24T14:01:45;2.88;;;1.20;;
15126;SDS011;7664;52.008;4.748;2023-04-24T14:04:16;6.10;;;1.80;;
15126;SDS011;7664;52.008;4.748;2023-04-24T14:06:50;2.03;;;1.15;;
15126;SDS011;7664;52.008;4.748;2023-04-24T14:09:21;7.32;;;2.33;;
15126;SDS011;7664;52.008;4.748;2023-04-24T14:11:49;8.65;;;2.28;;
15126;SDS011;7664;52.008;4.748;2023-04-24T14:14:18;7.47;;;3.80;;
15126;SDS011;7664;52.008;4.748;2023-04-24T14:16:47;7.72;;;1.92;;
15126;SDS011;7664;52.008;4.748;2023-04-24T14:19:16;4.68;;;1.50;;
15126;SDS011;7664;52.008;4.748;2023-04-24T14:21:44;6.85;;;2.05;;
15126;SDS011;7664;52.008;4.748;2023-04-24T14:24:15;8.30;;;2.42;;
15126;SDS011;7664;52.008;4.748;2023-04-24T14:26:47;7.13;;;2.55;;
15126;SDS011;7664;52.008;4.748;2023-04-24T14:29:17;6.97;;;2.22;;
15126;SDS011;7664;52.008;4.748;2023-04-24T14:31:47;5.13;;;2.15;;
15126;SDS011;7664;52.008;4.748;2023-04-24T14:34:18;6.25;;;2.10;;
15126;SDS011;7664;52.008;4.748;2023-04-24T14:36:49;8.95;;;2.28;;
15126;SDS011;7664;52.008;4.748;2023-04-24T14:39:22;7.13;;;2.38;;
15126;SDS011;7664;52.008;4.748;2023-04-24T14:41:52;7.93;;;1.88;;
15126;SDS011;7664;52.008;4.748;2023-04-24T14:44:25;7.07;;;2.00;;
15126;SDS011;7664;52.008;4.748;2023-04-24T14:46:55;7.78;;;2.38;;
15126;SDS011;7664;52.008;4.748;2023-04-24T14:49:24;6.05;;;2.90;;
15126;SDS011;7664;52.008;4.748;2023-04-24T14:51:54;6.03;;;2.20;;
15126;SDS011;7664;52.008;4.748;2023-04-24T14:54:23;7.80;;;2.75;;
15126;SDS011;7664;52.008;4.748;2023-04-24T14:56:54;11.40;;;2.67;;
15126;SDS011;7664;52.008;4.748;2023-04-24T14:59:27;4.22;;;2.10;;
15126;SDS011;7664;52.008;4.748;2023-04-24T15:01:58;5.80;;;2.35;;
15126;SDS011;7664;52.008;4.748;2023-04-24T15:04:41;6.57;;;2.35;;
15126;SDS011;7664;52.008;4.748;2023-04-24T15:07:12;9.27;;;2.95;;
15126;SDS011;7664;52.008;4.748;2023-04-24T15:09:40;8.18;;;2.13;;
15126;SDS011;7664;52.008;4.748;2023-04-24T15:12:13;8.45;;;3.38;;
15126;SDS011;7664;52.008;4.748;2023-04-24T15:14:42;7.35;;;2.53;;
15126;SDS011;7664;52.008;4.748;2023-04-24T15:17:11;7.60;;;2.90;;
15126;SDS011;7664;52.008;4.748;2023-04-24T15:19:39;9.82;;;2.40;;
15126;SDS011;7664;52.008;4.748;2023-04-24T15:22:09;6.93;;;2.08;;
15126;SDS011;7664;52.008;4.748;2023-04-24T15:24:37;6.38;;;1.90;;
15126;SDS011;7664;52.008;4.748;2023-04-24T15:27:08;6.22;;;2.33;;
15126;SDS011;7664;52.008;4.748;2023-04-24T15:29:37;3.53;;;1.83;;
15126;SDS011;7664;52.008;4.748;2023-04-24T15:32:05;16.27;;;2.47;;